createdAt,value
2018-02-17T00:01:13.177Z,20.90
2018-02-17T00:03:39.602Z,20.85
2018-02-17T00:06:05.871Z,23.83
2018-02-17T00:08:32.456Z,18.62
2018-02-17T00:10:58.909Z,20.37
2018-02-17T00:13:25.144Z,18.58
2018-02-17T00:15:51.385Z,23.67
2018-02-17T00:18:17.605Z,20.73
2018-02-17T00:20:43.813Z,17.87
2018-02-17T00:23:10.053Z,16.75
2018-02-17T00:25:36.979Z,18.05
2018-02-17T00:28:03.245Z,18.12
2018-02-17T00:30:29.524Z,18.52
2018-02-17T00:32:55.747Z,21.52
2018-02-17T00:35:21.972Z,17.83
2018-02-17T00:37:48.607Z,19.17
2018-02-17T00:40:15.231Z,15.60
2018-02-17T00:42:41.506Z,20.98
2018-02-17T00:45:07.846Z,17.58
2018-02-17T00:47:34.075Z,17.00
2018-02-17T00:50:00.349Z,21.23
2018-02-17T00:52:26.546Z,20.50
2018-02-17T00:54:52.825Z,20.20
2018-02-17T00:57:20.119Z,17.95
2018-02-17T00:59:46.412Z,17.25
2018-02-17T01:02:13.005Z,15.73
2018-02-17T01:04:39.303Z,17.58
2018-02-17T01:07:05.541Z,17.73
2018-02-17T01:09:31.733Z,18.98
2018-02-17T01:11:58.345Z,19.23
2018-02-17T01:14:24.539Z,19.50
2018-02-17T01:16:50.740Z,19.90
2018-02-17T01:19:16.991Z,20.70
2018-02-17T01:21:43.334Z,17.50
2018-02-17T01:24:09.556Z,16.55
2018-02-17T01:26:35.855Z,20.27
2018-02-17T01:29:02.077Z,18.90
2018-02-17T01:31:28.270Z,17.60
2018-02-17T01:33:54.516Z,17.20
2018-02-17T01:36:20.727Z,20.88
2018-02-17T01:38:47.029Z,20.50
2018-02-17T01:41:13.271Z,17.90
2018-02-17T01:43:39.498Z,19.90
2018-02-17T01:46:05.827Z,19.45
2018-02-17T01:48:32.075Z,20.23
2018-02-17T01:50:58.310Z,19.58
2018-02-17T01:53:24.533Z,24.08
2018-02-17T01:55:50.825Z,21.48
2018-02-17T01:58:17.083Z,17.15
2018-02-17T02:00:43.313Z,15.63
2018-02-17T02:03:09.628Z,18.92
2018-02-17T02:05:35.865Z,17.98
2018-02-17T02:08:02.087Z,19.02
2018-02-17T02:10:28.307Z,18.42
2018-02-17T02:12:54.555Z,17.33
2018-02-17T02:15:20.786Z,17.37
2018-02-17T02:17:46.995Z,15.95
2018-02-17T02:20:13.245Z,14.35
2018-02-17T02:22:39.457Z,15.77
2018-02-17T02:25:05.702Z,17.67
2018-02-17T02:27:31.927Z,15.93
2018-02-17T02:29:58.143Z,14.95
2018-02-17T02:32:24.392Z,15.68
2018-02-17T02:34:50.658Z,14.90
2018-02-17T02:37:17.218Z,14.95
2018-02-17T02:39:43.420Z,15.18
2018-02-17T02:42:09.652Z,17.45
2018-02-17T02:44:35.934Z,16.02
2018-02-17T02:47:02.203Z,15.15
2018-02-17T02:49:28.833Z,13.88
2018-02-17T02:51:55.056Z,14.80
2018-02-17T02:54:21.261Z,15.05
2018-02-17T02:56:47.988Z,13.45
2018-02-17T02:59:14.250Z,13.27
2018-02-17T03:01:40.468Z,12.95
2018-02-17T03:04:06.762Z,13.02
2018-02-17T03:06:33.009Z,14.10
2018-02-17T03:08:59.236Z,14.55
2018-02-17T03:11:25.466Z,15.13
2018-02-17T03:13:51.674Z,13.88
2018-02-17T03:16:17.875Z,16.30
2018-02-17T03:18:44.079Z,15.90
2018-02-17T03:21:10.316Z,15.25
2018-02-17T03:23:36.565Z,15.48
2018-02-17T03:26:02.810Z,14.80
2018-02-17T03:28:29.063Z,14.63
2018-02-17T03:30:55.291Z,16.85
2018-02-17T03:33:21.549Z,15.65
2018-02-17T03:35:47.767Z,17.60
2018-02-17T03:38:13.962Z,15.93
2018-02-17T03:40:40.181Z,15.85
2018-02-17T03:43:06.477Z,16.50
2018-02-17T03:45:33.086Z,18.75
2018-02-17T03:47:59.321Z,17.23
2018-02-17T03:50:25.542Z,17.23
2018-02-17T03:52:51.780Z,16.70
2018-02-17T03:55:18.417Z,16.92
2018-02-17T03:57:44.646Z,16.80
2018-02-17T04:00:10.849Z,16.75
2018-02-17T04:02:37.201Z,16.60
2018-02-17T04:05:03.566Z,17.85
2018-02-17T04:07:29.813Z,17.77
2018-02-17T04:09:56.392Z,18.58
2018-02-17T04:12:22.595Z,18.33
2018-02-17T04:14:48.814Z,18.50
2018-02-17T04:17:15.114Z,17.67
2018-02-17T04:19:41.759Z,16.65
2018-02-17T04:22:08.035Z,18.20
2018-02-17T04:24:34.262Z,20.60
2018-02-17T04:27:00.545Z,20.98
2018-02-17T04:29:26.806Z,18.25
2018-02-17T04:31:52.982Z,18.90
2018-02-17T04:34:19.554Z,20.58
2018-02-17T04:36:45.774Z,20.00
2018-02-17T04:39:12.074Z,19.92
2018-02-17T04:41:44.617Z,20.33
2018-02-17T04:44:24.060Z,20.83
2018-02-17T04:46:50.311Z,20.45
2018-02-17T04:49:20.920Z,17.85
2018-02-17T04:51:53.142Z,19.55
2018-02-17T04:54:21.202Z,22.10
2018-02-17T04:56:48.747Z,20.65
2018-02-17T04:59:21.337Z,21.58
2018-02-17T05:01:52.547Z,19.58
2018-02-17T05:04:34.626Z,20.88
2018-02-17T05:07:00.913Z,23.33
2018-02-17T05:09:27.166Z,21.08
2018-02-17T05:11:53.432Z,22.13
2018-02-17T05:14:24.073Z,21.98
2018-02-17T05:16:56.891Z,21.42
2018-02-17T05:19:23.164Z,21.77
2018-02-17T05:21:53.217Z,21.90
2018-02-17T05:24:20.401Z,23.95
2018-02-17T05:27:01.561Z,22.13
2018-02-17T05:29:28.725Z,22.40
2018-02-17T05:31:55.738Z,23.65
2018-02-17T05:34:28.114Z,21.52
2018-02-17T05:36:54.347Z,20.92
2018-02-17T05:39:20.593Z,21.77
2018-02-17T05:42:01.761Z,19.70
2018-02-17T05:44:28.012Z,24.67
2018-02-17T05:46:54.245Z,21.52
2018-02-17T05:49:20.519Z,20.45
2018-02-17T05:51:46.765Z,22.98
2018-02-17T05:54:13.024Z,22.48
2018-02-17T05:56:39.297Z,19.52
2018-02-17T05:59:05.887Z,21.70
2018-02-17T06:01:32.121Z,20.42
2018-02-17T06:03:58.343Z,23.33
2018-02-17T06:06:24.582Z,21.12
2018-02-17T06:08:50.817Z,21.33
2018-02-17T06:11:17.063Z,19.33
2018-02-17T06:13:43.655Z,20.50
2018-02-17T06:16:09.884Z,22.10
2018-02-17T06:18:36.104Z,20.23
2018-02-17T06:21:02.341Z,22.27
2018-02-17T06:23:28.857Z,20.58
2018-02-17T06:25:55.091Z,22.50
2018-02-17T06:28:21.311Z,20.77
2018-02-17T06:30:47.950Z,22.20
2018-02-17T06:33:14.182Z,21.50
2018-02-17T06:35:40.404Z,19.50
2018-02-17T06:38:06.725Z,20.52
2018-02-17T06:40:32.972Z,20.30
2018-02-17T06:42:59.180Z,22.73
2018-02-17T06:45:25.443Z,21.40
2018-02-17T06:47:51.646Z,20.50
2018-02-17T06:50:17.908Z,20.10
2018-02-17T06:52:44.469Z,21.00
2018-02-17T06:55:10.667Z,19.98
2018-02-17T06:57:37.010Z,19.98
2018-02-17T07:00:03.275Z,21.77
2018-02-17T07:02:29.507Z,20.37
2018-02-17T07:04:55.717Z,18.98
2018-02-17T07:07:22.338Z,21.33
2018-02-17T07:09:48.554Z,21.35
2018-02-17T07:12:14.775Z,19.60
2018-02-17T07:14:41.010Z,19.52
2018-02-17T07:17:07.287Z,20.90
2018-02-17T07:19:33.514Z,21.30
2018-02-17T07:21:59.763Z,21.33
2018-02-17T07:24:25.984Z,21.08
2018-02-17T07:26:52.199Z,20.77
2018-02-17T07:29:18.412Z,21.60
2018-02-17T07:31:44.979Z,19.12
2018-02-17T07:34:11.251Z,24.85
2018-02-17T07:36:37.577Z,19.67
2018-02-17T07:39:03.835Z,19.83
2018-02-17T07:41:30.070Z,21.12
2018-02-17T07:43:56.319Z,24.83
2018-02-17T07:46:22.516Z,22.77
2018-02-17T07:48:48.764Z,22.08
2018-02-17T07:51:15.295Z,23.83
2018-02-17T07:53:41.505Z,22.65
2018-02-17T07:56:09.053Z,23.52
2018-02-17T07:58:35.784Z,27.37
2018-02-17T08:01:01.992Z,27.95
2018-02-17T08:03:28.203Z,27.08
2018-02-17T08:05:54.868Z,25.92
2018-02-17T08:08:21.062Z,23.17
2018-02-17T08:10:47.284Z,23.95
2018-02-17T08:13:13.521Z,24.50
2018-02-17T08:15:39.740Z,20.77
2018-02-17T08:18:06.025Z,21.08
2018-02-17T08:20:32.615Z,23.67
2018-02-17T08:22:58.866Z,22.33
2018-02-17T08:25:25.102Z,20.35
2018-02-17T08:27:51.380Z,22.05
2018-02-17T08:30:17.615Z,22.65
2018-02-17T08:32:43.823Z,24.40
2018-02-17T08:35:10.843Z,23.70
2018-02-17T08:37:37.689Z,22.70
2018-02-17T08:40:03.910Z,23.92
2018-02-17T08:42:30.224Z,24.20
2018-02-17T08:44:56.456Z,25.37
2018-02-17T08:47:22.696Z,24.95
2018-02-17T08:49:49.024Z,25.12
2018-02-17T08:52:15.391Z,22.08
2018-02-17T08:54:41.668Z,22.15
2018-02-17T08:57:08.520Z,22.75
2018-02-17T08:59:34.784Z,23.12
2018-02-17T09:02:01.371Z,22.90
2018-02-17T09:04:27.700Z,23.33
2018-02-17T09:06:53.998Z,22.00
2018-02-17T09:09:20.295Z,21.80
2018-02-17T09:11:46.948Z,22.37
2018-02-17T09:14:13.613Z,21.42
2018-02-17T09:16:39.882Z,19.33
2018-02-17T09:19:06.106Z,22.42
2018-02-17T09:21:32.356Z,21.83
2018-02-17T09:23:58.597Z,22.75
2018-02-17T09:26:25.233Z,20.37
2018-02-17T09:28:51.483Z,22.17
2018-02-17T09:31:17.768Z,21.85
2018-02-17T09:33:43.933Z,20.75
2018-02-17T09:36:10.199Z,22.42
2018-02-17T09:38:36.447Z,20.20
2018-02-17T09:41:02.669Z,20.95
2018-02-17T09:43:29.347Z,20.60
2018-02-17T09:45:55.917Z,21.83
2018-02-17T09:48:22.254Z,19.17
2018-02-17T09:50:48.841Z,20.60
2018-02-17T09:53:15.560Z,19.83
2018-02-17T09:55:41.776Z,20.70
2018-02-17T09:58:08.142Z,20.10
2018-02-17T10:00:34.740Z,20.73
2018-02-17T10:03:00.984Z,21.58
2018-02-17T10:05:27.545Z,21.05
2018-02-17T10:07:54.367Z,21.10
2018-02-17T10:10:20.640Z,23.35
2018-02-17T10:12:46.942Z,21.05
2018-02-17T10:15:13.535Z,21.40
2018-02-17T10:17:39.783Z,21.45
2018-02-17T10:20:06.015Z,20.40
2018-02-17T10:22:32.289Z,20.98
2018-02-17T10:24:58.660Z,21.33
2018-02-17T10:27:25.029Z,20.98
2018-02-17T10:29:51.341Z,21.90
2018-02-17T10:32:17.733Z,19.75
2018-02-17T10:34:44.423Z,19.95
2018-02-17T10:37:11.025Z,19.55
2018-02-17T10:39:37.435Z,19.52
2018-02-17T10:42:03.880Z,20.50
2018-02-17T10:44:30.143Z,19.92
2018-02-17T10:46:56.484Z,21.05
2018-02-17T10:49:22.757Z,19.77
2018-02-17T10:51:49.018Z,20.00
2018-02-17T10:54:15.370Z,18.85
2018-02-17T10:56:42.145Z,18.80
2018-02-17T10:59:08.412Z,17.65
2018-02-17T11:01:35.237Z,19.42
2018-02-17T11:04:01.581Z,17.98
2018-02-17T11:06:27.971Z,20.37
2018-02-17T11:08:54.237Z,17.60
2018-02-17T11:11:20.809Z,18.50
2018-02-17T11:13:47.225Z,19.25
2018-02-17T11:16:13.517Z,20.45
2018-02-17T11:18:40.147Z,19.45
2018-02-17T11:21:06.383Z,20.37
2018-02-17T11:23:32.654Z,19.20
2018-02-17T11:25:59.316Z,19.77
2018-02-17T11:28:25.950Z,18.62
2018-02-17T11:30:52.568Z,17.45
2018-02-17T11:33:18.880Z,17.85
2018-02-17T11:35:45.150Z,19.35
2018-02-17T11:38:11.437Z,18.90
2018-02-17T11:40:37.785Z,18.23
2018-02-17T11:43:04.029Z,18.15
2018-02-17T11:45:30.724Z,21.00
2018-02-17T11:47:56.990Z,20.90
2018-02-17T11:50:23.247Z,18.35
2018-02-17T11:52:49.565Z,19.08
2018-02-17T11:55:15.827Z,18.23
2018-02-17T11:57:42.137Z,18.60
2018-02-17T12:00:08.435Z,28.27
2018-02-17T12:02:35.169Z,20.65
2018-02-17T12:05:01.409Z,18.60
2018-02-17T12:07:28.360Z,19.17
2018-02-17T12:09:54.580Z,20.27
2018-02-17T12:12:21.199Z,21.05
2018-02-17T12:14:47.484Z,22.08
2018-02-17T12:17:13.760Z,17.98
2018-02-17T12:19:40.023Z,16.30
2018-02-17T12:22:06.714Z,18.45
2018-02-17T12:24:32.956Z,17.42
2018-02-17T12:26:59.201Z,16.87
2018-02-17T12:29:25.794Z,17.35
2018-02-17T12:31:52.369Z,15.13
2018-02-17T12:34:18.795Z,16.33
2018-02-17T12:36:45.037Z,15.90
2018-02-17T12:39:11.317Z,15.60
2018-02-17T12:41:37.682Z,15.63
2018-02-17T12:44:03.981Z,15.80
2018-02-17T12:46:30.309Z,14.48
2018-02-17T12:48:56.614Z,16.08
2018-02-17T12:51:22.835Z,14.30
2018-02-17T12:53:49.052Z,15.18
2018-02-17T12:56:15.670Z,14.40
2018-02-17T12:58:41.951Z,15.20
2018-02-17T13:01:08.218Z,15.52
2018-02-17T13:03:34.480Z,15.77
2018-02-17T13:06:00.771Z,16.62
2018-02-17T13:08:27.059Z,16.35
2018-02-17T13:10:53.394Z,15.93
2018-02-17T13:13:20.068Z,17.67
2018-02-17T13:15:46.327Z,15.13
2018-02-17T13:18:12.878Z,15.80
2018-02-17T13:20:39.159Z,14.45
2018-02-17T13:23:06.069Z,14.10
2018-02-17T13:25:32.355Z,15.57
2018-02-17T13:27:58.954Z,15.23
2018-02-17T13:30:25.170Z,16.12
2018-02-17T13:32:51.442Z,16.33
2018-02-17T13:35:17.688Z,17.15
2018-02-17T13:37:43.929Z,16.83
2018-02-17T13:40:10.213Z,16.30
2018-02-17T13:42:36.477Z,16.58
2018-02-17T13:45:03.561Z,14.23
2018-02-17T13:47:29.785Z,14.30
2018-02-17T13:49:56.039Z,14.43
2018-02-17T13:52:22.247Z,13.88
2018-02-17T13:54:48.493Z,13.80
2018-02-17T13:57:14.736Z,14.77
2018-02-17T13:59:41.000Z,11.73
2018-02-17T14:02:07.351Z,12.93
2018-02-17T14:04:33.598Z,12.00
2018-02-17T14:06:59.889Z,11.75
2018-02-17T14:09:26.161Z,13.07
2018-02-17T14:11:52.373Z,12.43
2018-02-17T14:14:18.684Z,12.05
2018-02-17T14:16:45.122Z,12.52
2018-02-17T14:19:11.373Z,10.40
2018-02-17T14:21:38.124Z,9.85
2018-02-17T14:24:04.430Z,8.85
2018-02-17T14:26:30.687Z,10.18
2018-02-17T14:28:56.932Z,10.05
2018-02-17T14:31:23.136Z,9.82
2018-02-17T14:33:49.369Z,10.68
2018-02-17T14:36:15.647Z,9.10
2018-02-17T14:38:41.920Z,9.98
2018-02-17T14:41:08.148Z,8.93
2018-02-17T14:43:34.926Z,9.15
2018-02-17T14:46:01.210Z,10.82
2018-02-17T14:48:27.510Z,8.85
2018-02-17T14:50:53.770Z,9.35
2018-02-17T14:53:19.999Z,10.13
2018-02-17T14:55:46.220Z,9.65
2018-02-17T14:58:12.807Z,9.27
2018-02-17T15:00:39.105Z,9.48
2018-02-17T15:03:05.285Z,8.93
2018-02-17T15:05:31.540Z,9.18
2018-02-17T15:07:58.129Z,8.88
2018-02-17T15:10:24.748Z,7.95
2018-02-17T15:12:50.982Z,8.05
2018-02-17T15:15:17.466Z,8.25
2018-02-17T15:17:43.708Z,8.35
2018-02-17T15:20:09.934Z,9.35
2018-02-17T15:22:36.248Z,8.95
2018-02-17T15:25:03.966Z,8.73
2018-02-17T15:27:30.169Z,9.80
2018-02-17T15:29:56.764Z,7.50
2018-02-17T15:32:23.062Z,8.80
2018-02-17T15:34:49.315Z,9.32
2018-02-17T15:37:15.955Z,7.70
2018-02-17T15:39:42.358Z,6.47
2018-02-17T15:42:08.622Z,6.60
2018-02-17T15:44:34.864Z,6.35
2018-02-17T15:47:01.132Z,7.15
2018-02-17T15:49:28.709Z,8.05
2018-02-17T15:51:54.906Z,7.10
2018-02-17T15:54:21.238Z,8.50
2018-02-17T15:56:47.518Z,7.62
2018-02-17T15:59:13.819Z,13.00
2018-02-17T16:01:40.466Z,8.85
2018-02-17T16:04:06.753Z,9.82
2018-02-17T16:06:33.014Z,8.07
2018-02-17T16:08:59.276Z,9.95
2018-02-17T16:11:25.913Z,8.77
2018-02-17T16:13:52.172Z,12.27
2018-02-17T16:16:18.391Z,9.43
2018-02-17T16:18:44.681Z,9.55
2018-02-17T16:21:11.373Z,11.55
2018-02-17T16:23:37.660Z,13.43
2018-02-17T16:26:04.290Z,11.60
2018-02-17T16:28:30.961Z,11.55
2018-02-17T16:30:57.208Z,11.18
2018-02-17T16:33:23.464Z,10.00
2018-02-17T16:35:49.708Z,9.52
2018-02-17T16:38:15.914Z,10.13
2018-02-17T16:40:42.105Z,10.38
2018-02-17T16:43:08.417Z,10.23
2018-02-17T16:45:34.671Z,15.65
2018-02-17T16:48:00.913Z,15.40
2018-02-17T16:50:27.164Z,11.00
2018-02-17T16:52:53.392Z,10.20
2018-02-17T16:55:19.640Z,9.75
2018-02-17T16:57:45.960Z,10.88
2018-02-17T17:00:12.259Z,9.75
2018-02-17T17:02:38.546Z,8.60
2018-02-17T17:05:04.828Z,8.65
2018-02-17T17:07:31.106Z,9.07
2018-02-17T17:09:57.734Z,11.10
2018-02-17T17:12:24.395Z,9.98
2018-02-17T17:14:50.637Z,11.57
2018-02-17T17:17:16.941Z,10.25
2018-02-17T17:19:43.251Z,8.52
2018-02-17T17:22:09.878Z,10.23
2018-02-17T17:24:36.142Z,37.05
2018-02-17T17:27:02.391Z,67.05
2018-02-17T17:29:28.641Z,97.07
2018-02-17T17:31:54.948Z,105.18
2018-02-17T17:34:21.198Z,140.48
2018-02-17T17:36:47.655Z,156.65
2018-02-17T17:39:13.864Z,383.00
2018-02-17T17:41:40.087Z,490.15
2018-02-17T17:44:06.413Z,403.38
2018-02-17T17:46:32.742Z,200.85
2018-02-17T17:48:58.952Z,188.27
2018-02-17T17:51:25.204Z,65.57
2018-02-17T17:53:51.475Z,30.92
2018-02-17T17:56:18.130Z,11.70
2018-02-17T17:58:44.487Z,10.18
2018-02-17T18:01:10.805Z,9.65
2018-02-17T18:03:37.093Z,57.47
2018-02-17T18:06:03.360Z,30.77
2018-02-17T18:08:29.695Z,60.22
2018-02-17T18:10:55.907Z,19.40
2018-02-17T18:13:23.116Z,11.88
2018-02-17T18:15:49.365Z,12.25
2018-02-17T18:18:15.961Z,9.80
2018-02-17T18:20:42.247Z,18.48
2018-02-17T18:23:08.586Z,9.80
2018-02-17T18:25:34.832Z,13.50
2018-02-17T18:28:01.899Z,13.98
2018-02-17T18:30:29.055Z,19.83
2018-02-17T18:32:55.325Z,18.15
2018-02-17T18:35:21.941Z,21.90
2018-02-17T18:37:49.332Z,22.00
2018-02-17T18:40:15.603Z,27.95
2018-02-17T18:42:41.868Z,34.65
2018-02-17T18:45:08.533Z,55.67
2018-02-17T18:47:34.770Z,23.30
2018-02-17T18:50:01.136Z,16.95
2018-02-17T18:52:27.429Z,18.80
2018-02-17T18:54:53.667Z,17.00
2018-02-17T18:57:20.003Z,16.45
2018-02-17T18:59:46.773Z,16.30
2018-02-17T19:02:13.040Z,16.40
2018-02-17T19:04:39.370Z,16.80
2018-02-17T19:07:06.069Z,16.10
2018-02-17T19:09:32.352Z,19.60
2018-02-17T19:11:58.609Z,17.87
2018-02-17T19:14:25.037Z,21.10
2018-02-17T19:16:51.431Z,16.17
2018-02-17T19:19:17.710Z,30.70
2018-02-17T19:21:44.013Z,70.35
2018-02-17T19:24:10.256Z,94.20
2018-02-17T19:26:36.689Z,68.93
2018-02-17T19:29:02.932Z,27.90
2018-02-17T19:31:29.232Z,28.25
2018-02-17T19:33:55.553Z,37.78
2018-02-17T19:36:21.838Z,48.85
2018-02-17T19:38:48.505Z,37.72
2018-02-17T19:41:15.137Z,32.95
2018-02-17T19:43:41.474Z,23.25
2018-02-17T19:46:07.726Z,33.70
2018-02-17T19:48:34.109Z,27.00
2018-02-17T19:51:00.669Z,29.58
2018-02-17T19:53:26.895Z,28.23
2018-02-17T19:55:53.160Z,30.25
2018-02-17T19:58:19.489Z,26.65
2018-02-17T20:00:45.940Z,30.42
2018-02-17T20:03:12.612Z,28.40
2018-02-17T20:05:39.189Z,21.90
2018-02-17T20:08:05.502Z,23.98
2018-02-17T20:10:31.769Z,21.20
2018-02-17T20:12:58.052Z,21.30
2018-02-17T20:15:24.812Z,25.77
2018-02-17T20:17:51.054Z,25.42
2018-02-17T20:20:17.306Z,17.10
2018-02-17T20:22:44.217Z,21.20
2018-02-17T20:25:10.490Z,19.00
2018-02-17T20:27:36.935Z,15.63
2018-02-17T20:30:03.578Z,13.77
2018-02-17T20:32:30.210Z,12.98
2018-02-17T20:34:56.514Z,13.60
2018-02-17T20:37:22.848Z,14.85
2018-02-17T20:39:49.075Z,13.65
2018-02-17T20:42:15.332Z,13.13
2018-02-17T20:44:41.966Z,14.23
2018-02-17T20:47:08.660Z,14.40
2018-02-17T20:49:35.077Z,13.95
2018-02-17T20:52:01.419Z,15.75
2018-02-17T20:54:27.751Z,14.98
2018-02-17T20:56:53.978Z,16.10
2018-02-17T20:59:20.288Z,13.05
2018-02-17T21:01:46.673Z,13.90
2018-02-17T21:04:13.024Z,20.83
2018-02-17T21:06:39.695Z,14.43
2018-02-17T21:09:05.986Z,64.65
2018-02-17T21:11:32.226Z,64.47
2018-02-17T21:13:58.517Z,57.40
2018-02-17T21:16:25.231Z,30.73
2018-02-17T21:18:51.534Z,53.22
2018-02-17T21:21:17.833Z,18.30
2018-02-17T21:23:44.959Z,13.07
2018-02-17T21:26:11.177Z,19.45
2018-02-17T21:28:37.950Z,20.55
2018-02-17T21:31:04.450Z,15.57
2018-02-17T21:33:30.716Z,17.05
2018-02-17T21:35:57.328Z,19.42
2018-02-17T21:38:23.715Z,16.15
2018-02-17T21:40:52.051Z,14.80
2018-02-17T21:43:18.324Z,14.75
2018-02-17T21:45:44.603Z,14.10
2018-02-17T21:48:10.859Z,15.65
2018-02-17T21:50:37.739Z,14.45
2018-02-17T21:53:04.005Z,13.50
2018-02-17T21:55:30.221Z,14.73
2018-02-17T21:57:56.547Z,14.77
2018-02-17T22:00:22.905Z,15.77
2018-02-17T22:02:49.264Z,13.90
2018-02-17T22:05:15.535Z,13.60
2018-02-17T22:07:41.750Z,14.05
2018-02-17T22:10:08.077Z,13.98
2018-02-17T22:12:34.346Z,13.40
2018-02-17T22:15:00.610Z,14.57
2018-02-17T22:17:26.884Z,14.23
2018-02-17T22:19:53.247Z,13.98
2018-02-17T22:22:20.040Z,13.23
2018-02-17T22:24:46.265Z,14.00
2018-02-17T22:27:12.522Z,14.15
2018-02-17T22:29:38.797Z,13.75
2018-02-17T22:32:05.058Z,14.10
2018-02-17T22:34:31.357Z,14.05
2018-02-17T22:36:57.674Z,15.68
2018-02-17T22:39:24.298Z,14.70
2018-02-17T22:41:50.921Z,14.63
2018-02-17T22:44:17.232Z,15.63
2018-02-17T22:46:43.478Z,16.05
2018-02-17T22:49:09.733Z,16.42
2018-02-17T22:51:36.432Z,15.73
2018-02-17T22:54:02.684Z,16.73
2018-02-17T22:56:29.067Z,15.75
2018-02-17T22:58:55.739Z,14.25
2018-02-17T23:01:21.948Z,15.63
2018-02-17T23:03:48.300Z,15.23
2018-02-17T23:06:14.605Z,15.05
2018-02-17T23:08:40.843Z,14.93
2018-02-17T23:11:07.246Z,15.50
2018-02-17T23:13:33.507Z,16.15
2018-02-17T23:16:00.034Z,15.07
2018-02-17T23:18:26.269Z,15.10
2018-02-17T23:20:52.471Z,15.05
2018-02-17T23:23:18.755Z,16.55
2018-02-17T23:25:45.008Z,16.33
2018-02-17T23:28:11.230Z,15.73
2018-02-17T23:30:37.510Z,16.08
2018-02-17T23:33:03.740Z,17.30
2018-02-17T23:35:30.015Z,14.38
2018-02-17T23:37:56.649Z,17.02
2018-02-17T23:40:23.258Z,16.60
2018-02-17T23:42:49.505Z,16.90
2018-02-17T23:45:16.167Z,16.65
2018-02-17T23:47:42.416Z,15.85
2018-02-17T23:50:08.718Z,16.25
2018-02-17T23:52:34.981Z,16.15
2018-02-17T23:55:01.197Z,15.95
2018-02-17T23:57:27.456Z,17.60
2018-02-17T23:59:53.669Z,16.73
